Terminal Aerodrome Forecast
Issued by NWS

Home | Current Version | Previous Version | Text Only | Print | Product List | Glossary On
Versions: 1 2 3 4 5 6 7 8 9 10 11 12 13 14 15 16 17 18 19 20
000
FTUS44 KBMX 221100
TAFTCL
TAF
KTCL 221139Z 2212/2312 12003KT 4SM BR OVC007
     FM221800 12005KT P6SM VCSH OVC009
     FM230200 14006KT 2SM SHRA BR OVC003=

USA.gov is the U.S. government's official web portal to all federal, state and local government web resources and services.